Time;durP1;ratioP1;P1;durP2;ratioP2;P2;SDS_P1;SDS_P2;PMS_P1;PMS_P2;Temp;Humidity;BMP_temperature;BMP_pressure;BME280_temperature;BME280_humidity;BME280_pressure;Samples;Min_cycle;Max_cycle;Signal;HPM_P1;HPM_P2
2021/09/14 00:01:12;;;;;;;13.35;7.80;;;;;;;;;;5100877;28;20326;-84
2021/09/14 00:03:38;;;;;;;18.98;8.05;;;;;;;;;;5101169;28;20024;-84
2021/09/14 00:06:04;;;;;;;15.98;8.00;;;;;;;;;;5100613;28;20386;-84
2021/09/14 00:08:30;;;;;;;16.50;7.78;;;;;;;;;;5099724;28;20020;-84
2021/09/14 00:10:56;;;;;;;18.58;8.07;;;;;;;;;;5100888;28;20018;-84
2021/09/14 00:13:22;;;;;;;15.57;7.82;;;;;;;;;;5100500;28;20098;-83
2021/09/14 00:15:48;;;;;;;14.98;8.15;;;;;;;;;;5100516;28;20026;-83
2021/09/14 00:18:14;;;;;;;19.58;7.93;;;;;;;;;;5099465;28;20112;-84
2021/09/14 00:20:40;;;;;;;16.17;7.57;;;;;;;;;;5100508;28;20065;-83
2021/09/14 00:23:06;;;;;;;12.20;7.80;;;;;;;;;;5100474;28;20031;-83
2021/09/14 00:25:33;;;;;;;16.58;8.32;;;;;;;;;;5100378;28;20107;-83
2021/09/14 00:27:59;;;;;;;15.95;8.77;;;;;;;;;;5100333;28;20024;-83
2021/09/14 00:30:25;;;;;;;14.95;8.20;;;;;;;;;;5100119;28;20048;-83
2021/09/14 00:32:51;;;;;;;13.75;8.48;;;;;;;;;;5100140;28;20020;-83
2021/09/14 00:35:17;;;;;;;15.07;8.30;;;;;;;;;;5100315;28;20020;-82
2021/09/14 00:37:43;;;;;;;18.20;8.43;;;;;;;;;;5099845;28;20543;-83
2021/09/14 00:40:10;;;;;;;17.60;8.98;;;;;;;;;;5099767;28;20060;-83
2021/09/14 00:42:36;;;;;;;14.93;8.50;;;;;;;;;;5100258;28;20062;-83
2021/09/14 00:45:03;;;;;;;13.43;7.93;;;;;;;;;;5099929;28;20027;-83
2021/09/14 00:47:29;;;;;;;14.75;8.70;;;;;;;;;;5099205;28;20425;-83
2021/09/14 00:49:56;;;;;;;16.90;8.68;;;;;;;;;;5100036;28;20333;-83
2021/09/14 00:52:22;;;;;;;12.35;8.13;;;;;;;;;;5098836;28;20028;-83
2021/09/14 00:54:48;;;;;;;15.85;8.77;;;;;;;;;;5100117;28;20028;-83
2021/09/14 00:57:14;;;;;;;13.23;8.52;;;;;;;;;;5099767;28;20021;-83
2021/09/14 00:59:40;;;;;;;15.10;8.90;;;;;;;;;;5098916;28;20063;-83
2021/09/14 01:02:06;;;;;;;15.18;9.27;;;;;;;;;;5099318;28;20410;-83
2021/09/14 01:04:32;;;;;;;15.07;9.10;;;;;;;;;;5099259;28;20051;-84
2021/09/14 01:06:58;;;;;;;16.85;9.18;;;;;;;;;;5099808;28;20040;-84
2021/09/14 01:09:24;;;;;;;13.68;9.27;;;;;;;;;;5098483;28;20081;-84
2021/09/14 01:11:53;;;;;;;17.60;9.52;;;;;;;;;;5099792;28;20044;-84
2021/09/14 01:14:19;;;;;;;16.30;8.95;;;;;;;;;;5098634;28;20505;-84
2021/09/14 01:16:46;;;;;;;13.18;9.43;;;;;;;;;;5099351;28;20314;-84
2021/09/14 01:19:12;;;;;;;19.35;9.77;;;;;;;;;;5099380;28;20102;-83
2021/09/14 01:21:38;;;;;;;17.35;9.80;;;;;;;;;;5099255;28;20401;-83
2021/09/14 01:24:05;;;;;;;15.73;9.23;;;;;;;;;;5099341;28;20028;-84
2021/09/14 01:26:31;;;;;;;11.68;9.15;;;;;;;;;;5098446;28;20028;-84
2021/09/14 01:28:58;;;;;;;13.70;9.10;;;;;;;;;;5099239;28;20032;-84
2021/09/14 01:31:24;;;;;;;16.63;9.98;;;;;;;;;;5099213;28;20027;-84
2021/09/14 01:33:51;;;;;;;12.18;9.65;;;;;;;;;;5099205;28;20024;-84
2021/09/14 01:36:17;;;;;;;13.43;9.45;;;;;;;;;;5098312;28;20028;-84
2021/09/14 01:38:43;;;;;;;15.45;9.98;;;;;;;;;;5098940;28;20414;-84
2021/09/14 01:41:10;;;;;;;13.25;9.35;;;;;;;;;;5099002;28;20106;-84
2021/09/14 01:43:36;;;;;;;16.48;9.05;;;;;;;;;;5099080;28;20013;-84
2021/09/14 01:46:02;;;;;;;16.42;9.55;;;;;;;;;;5099038;28;20287;-84
2021/09/14 01:48:29;;;;;;;12.98;9.00;;;;;;;;;;5099013;28;20032;-84
2021/09/14 01:50:55;;;;;;;12.65;9.45;;;;;;;;;;5098341;28;20035;-85
2021/09/14 01:53:23;;;;;;;17.13;10.13;;;;;;;;;;5099035;28;20024;-85
2021/09/14 01:55:50;;;;;;;15.48;9.55;;;;;;;;;;5099204;28;20020;-85
2021/09/14 01:58:17;;;;;;;19.67;10.20;;;;;;;;;;5098650;28;20020;-85
2021/09/14 02:00:53;;;;;;;18.67;9.68;;;;;;;;;;5098441;28;20323;-83
2021/09/14 02:59:36;;;;;;;12.10;10.43;;;;;;;;;;5097634;28;20036;-84
2021/09/14 03:02:02;;;;;;;14.85;9.75;;;;;;;;;;5097936;28;20138;-84
2021/09/14 03:04:28;;;;;;;12.95;9.88;;;;;;;;;;5097977;28;20061;-85
2021/09/14 03:06:54;;;;;;;21.75;11.57;;;;;;;;;;5097312;28;20127;-84
2021/09/14 03:09:20;;;;;;;19.15;11.38;;;;;;;;;;5097389;28;20028;-83
2021/09/14 03:11:46;;;;;;;21.58;10.85;;;;;;;;;;5097165;28;20027;-84
2021/09/14 03:14:12;;;;;;;16.80;11.23;;;;;;;;;;5097824;28;20028;-84
2021/09/14 03:16:39;;;;;;;18.25;11.35;;;;;;;;;;5097287;28;20459;-83
2021/09/14 03:19:06;;;;;;;16.98;11.52;;;;;;;;;;5097311;28;20316;-83
2021/09/14 03:21:32;;;;;;;16.73;10.73;;;;;;;;;;5097164;28;20390;-83
2021/09/14 03:23:58;;;;;;;17.55;10.93;;;;;;;;;;5097302;28;20024;-83
2021/09/14 03:26:24;;;;;;;15.88;11.93;;;;;;;;;;5099110;28;20027;-85
2021/09/14 03:28:50;;;;;;;15.77;11.88;;;;;;;;;;5101213;28;20119;-84
2021/09/14 03:31:17;;;;;;;18.00;11.15;;;;;;;;;;5101504;28;20314;-82
2021/09/14 03:33:44;;;;;;;20.45;11.48;;;;;;;;;;5101448;28;20028;-81
2021/09/14 03:36:10;;;;;;;20.70;11.20;;;;;;;;;;5100180;28;20405;-82
2021/09/14 03:38:36;;;;;;;15.73;11.65;;;;;;;;;;5100245;28;20432;-82
2021/09/14 03:41:02;;;;;;;17.13;11.27;;;;;;;;;;5101115;28;20307;-82
2021/09/14 03:43:28;;;;;;;14.60;10.82;;;;;;;;;;5101101;28;20027;-82
2021/09/14 03:45:54;;;;;;;31.42;13.13;;;;;;;;;;5099959;28;20020;-82
2021/09/14 03:48:20;;;;;;;23.92;11.55;;;;;;;;;;5100227;28;20071;-83
2021/09/14 03:50:47;;;;;;;24.02;12.07;;;;;;;;;;5100943;28;20050;-82
2021/09/14 03:53:13;;;;;;;19.17;12.00;;;;;;;;;;5099788;28;20119;-82
2021/09/14 03:55:39;;;;;;;14.90;11.40;;;;;;;;;;5100921;28;20024;-82
2021/09/14 03:58:06;;;;;;;15.68;11.85;;;;;;;;;;5099706;28;20028;-82
2021/09/14 04:00:32;;;;;;;17.98;12.60;;;;;;;;;;5099481;28;20031;-82
2021/09/14 04:05:38;;;;;;;17.02;12.98;;;;;;;;;;5100906;28;20287;-81
2021/09/14 04:10:56;;;;;;;24.40;13.55;;;;;;;;;;5078396;28;20025;-81
2021/09/14 04:13:22;;;;;;;20.15;13.02;;;;;;;;;;5061473;28;20229;-81
2021/09/14 04:15:48;;;;;;;22.33;12.90;;;;;;;;;;5078350;28;20111;-81
2021/09/14 04:18:14;;;;;;;23.50;13.02;;;;;;;;;;5078130;28;20032;-81
2021/09/14 04:20:40;;;;;;;19.08;13.13;;;;;;;;;;5078058;28;20035;-81
2021/09/14 04:23:06;;;;;;;22.85;13.43;;;;;;;;;;5078259;28;20064;-81
2021/09/14 04:25:32;;;;;;;25.50;14.63;;;;;;;;;;5061319;28;20110;-81
2021/09/14 04:27:58;;;;;;;25.55;13.73;;;;;;;;;;5077943;28;20036;-81
2021/09/14 04:30:24;;;;;;;22.85;13.80;;;;;;;;;;5061085;28;20043;-81
2021/09/14 04:32:51;;;;;;;19.90;13.23;;;;;;;;;;5078083;28;20031;-81
2021/09/14 04:35:17;;;;;;;25.70;13.07;;;;;;;;;;5060939;28;20071;-81
2021/09/14 04:37:43;;;;;;;16.67;13.70;;;;;;;;;;5076705;28;20407;-81
2021/09/14 04:40:11;;;;;;;23.35;13.63;;;;;;;;;;5061012;28;20411;-81
2021/09/14 04:42:37;;;;;;;22.15;13.15;;;;;;;;;;5077763;28;20075;-81
2021/09/14 04:45:03;;;;;;;19.92;13.35;;;;;;;;;;5077737;28;20025;-81
2021/09/14 04:47:29;;;;;;;24.98;13.18;;;;;;;;;;5084741;28;20070;-81
2021/09/14 04:49:56;;;;;;;20.13;13.18;;;;;;;;;;5098763;28;20028;-81
2021/09/14 04:52:22;;;;;;;15.00;12.43;;;;;;;;;;5099914;28;20069;-81
2021/09/14 04:54:48;;;;;;;24.17;13.32;;;;;;;;;;5099613;28;20115;-81
2021/09/14 04:57:14;;;;;;;20.67;12.48;;;;;;;;;;5099540;28;20024;-81
2021/09/14 04:59:40;;;;;;;20.42;11.77;;;;;;;;;;5098762;28;20061;-81
2021/09/14 05:02:06;;;;;;;18.40;12.00;;;;;;;;;;5086613;28;20024;-82
2021/09/14 05:04:32;;;;;;;18.33;11.93;;;;;;;;;;5098348;28;20057;-82
2021/09/14 05:06:58;;;;;;;22.13;12.40;;;;;;;;;;5099289;28;20441;-82
2021/09/14 05:09:24;;;;;;;17.65;12.77;;;;;;;;;;5099461;28;20410;-80
2021/09/14 05:11:50;;;;;;;19.38;13.70;;;;;;;;;;5083030;28;20418;-81
2021/09/14 05:14:16;;;;;;;18.40;11.70;;;;;;;;;;5079101;28;20078;-83
2021/09/14 05:16:42;;;;;;;20.08;12.80;;;;;;;;;;5079608;28;20036;-82
2021/09/14 05:19:10;;;;;;;21.05;12.70;;;;;;;;;;5079035;28;20036;-83
2021/09/14 05:21:44;;;;;;;21.63;12.95;;;;;;;;;;5078884;28;20025;-82
2021/09/14 05:24:10;;;;;;;20.27;13.02;;;;;;;;;;5079255;28;20071;-83
2021/09/14 05:26:36;;;;;;;20.83;12.93;;;;;;;;;;5078813;28;20023;-83
2021/09/14 05:29:02;;;;;;;24.15;12.80;;;;;;;;;;5078824;28;20029;-82
2021/09/14 05:31:28;;;;;;;18.73;12.18;;;;;;;;;;5078833;28;20423;-83
2021/09/14 05:33:54;;;;;;;17.60;11.77;;;;;;;;;;5078821;28;20429;-82
2021/09/14 05:36:21;;;;;;;25.52;11.80;;;;;;;;;;5077669;28;20020;-83
2021/09/14 05:38:47;;;;;;;19.83;12.02;;;;;;;;;;5077967;28;20037;-82
2021/09/14 05:41:13;;;;;;;23.75;13.05;;;;;;;;;;5078736;28;20021;-82
2021/09/14 05:43:39;;;;;;;27.38;18.95;;;;;;;;;;5078524;28;20027;-83
2021/09/14 05:46:05;;;;;;;32.58;22.08;;;;;;;;;;5078493;28;20020;-83
2021/09/14 05:48:31;;;;;;;53.15;34.50;;;;;;;;;;5078417;28;20475;-82
2021/09/14 05:50:57;;;;;;;70.30;50.47;;;;;;;;;;5078490;28;20033;-82
2021/09/14 05:53:23;;;;;;;72.70;57.40;;;;;;;;;;5078565;28;20050;-82
2021/09/14 05:55:49;;;;;;;55.88;42.05;;;;;;;;;;5078350;28;20070;-82
2021/09/14 05:58:15;;;;;;;51.78;35.80;;;;;;;;;;5078272;28;20024;-82
2021/09/14 06:00:41;;;;;;;34.28;24.05;;;;;;;;;;5078115;28;20032;-82
2021/09/14 06:03:07;;;;;;;29.42;16.65;;;;;;;;;;5077181;28;20107;-82
2021/09/14 06:05:33;;;;;;;20.42;14.15;;;;;;;;;;5078309;28;20032;-83
2021/09/14 06:07:59;;;;;;;22.35;13.93;;;;;;;;;;5077923;28;20090;-82
2021/09/14 06:10:25;;;;;;;27.55;14.13;;;;;;;;;;5078031;28;20040;-82
2021/09/14 06:12:51;;;;;;;20.02;13.70;;;;;;;;;;5077939;28;20040;-82
2021/09/14 06:15:17;;;;;;;22.50;14.27;;;;;;;;;;5077911;28;20501;-82
2021/09/14 06:17:43;;;;;;;20.25;14.80;;;;;;;;;;5076890;28;20032;-82
2021/09/14 06:20:10;;;;;;;21.65;14.75;;;;;;;;;;5077788;28;20037;-82
2021/09/14 06:22:37;;;;;;;19.63;14.93;;;;;;;;;;5077100;28;20031;-82
2021/09/14 06:25:03;;;;;;;20.80;13.25;;;;;;;;;;5077703;28;20033;-82
2021/09/14 06:27:32;;;;;;;21.08;13.95;;;;;;;;;;5077886;28;20387;-85
2021/09/14 06:29:58;;;;;;;22.20;13.93;;;;;;;;;;5077519;28;20032;-82
2021/09/14 06:32:25;;;;;;;20.50;13.88;;;;;;;;;;5077783;28;20025;-83
2021/09/14 06:34:51;;;;;;;25.15;16.73;;;;;;;;;;5077625;28;20032;-82
2021/09/14 06:37:17;;;;;;;22.42;15.40;;;;;;;;;;5077692;28;20025;-82
2021/09/14 06:39:43;;;;;;;25.27;14.18;;;;;;;;;;5077817;28;20032;-82
2021/09/14 06:42:09;;;;;;;24.80;13.95;;;;;;;;;;5077489;28;20100;-82
2021/09/14 06:44:35;;;;;;;20.27;14.70;;;;;;;;;;5077327;28;20186;-82
2021/09/14 06:47:01;;;;;;;27.55;16.38;;;;;;;;;;5077196;28;20032;-82
2021/09/14 06:49:29;;;;;;;21.60;14.90;;;;;;;;;;5077352;28;20065;-82
2021/09/14 06:51:56;;;;;;;23.40;14.48;;;;;;;;;;5077427;28;20024;-82
2021/09/14 06:54:22;;;;;;;21.23;15.35;;;;;;;;;;5077280;28;20052;-82
2021/09/14 06:56:48;;;;;;;27.50;15.23;;;;;;;;;;5077304;28;20028;-82
2021/09/14 06:59:14;;;;;;;30.48;21.33;;;;;;;;;;5075976;28;20024;-82
2021/09/14 07:01:41;;;;;;;35.35;24.90;;;;;;;;;;5075502;28;20115;-82
2021/09/14 07:04:07;;;;;;;30.63;16.92;;;;;;;;;;5076201;28;20035;-82
2021/09/14 07:06:33;;;;;;;27.33;15.45;;;;;;;;;;5077203;28;20068;-82
2021/09/14 07:08:59;;;;;;;20.13;14.63;;;;;;;;;;5077221;28;20021;-82
2021/09/14 07:11:25;;;;;;;22.67;15.95;;;;;;;;;;5077254;28;20023;-82
2021/09/14 07:13:52;;;;;;;31.75;22.27;;;;;;;;;;5077031;28;20099;-82
2021/09/14 07:16:18;;;;;;;35.60;19.38;;;;;;;;;;5077005;28;20040;-82
2021/09/14 07:18:46;;;;;;;91.03;55.45;;;;;;;;;;5077442;28;20047;-82
2021/09/14 07:21:12;;;;;;;64.22;41.35;;;;;;;;;;5075909;28;20017;-83
2021/09/14 07:23:38;;;;;;;74.45;53.20;;;;;;;;;;5076983;28;20103;-83
2021/09/14 07:26:04;;;;;;;139.80;102.50;;;;;;;;;;5093878;28;20090;-83
2021/09/14 07:28:30;;;;;;;42.35;27.02;;;;;;;;;;5096810;28;20051;-82
2021/09/14 07:30:56;;;;;;;26.92;17.05;;;;;;;;;;5097112;28;20066;-83
2021/09/14 07:33:23;;;;;;;32.80;21.27;;;;;;;;;;5096399;28;20090;-82
2021/09/14 07:35:49;;;;;;;40.22;26.38;;;;;;;;;;5096147;28;20036;-82
2021/09/14 07:38:15;;;;;;;25.83;16.33;;;;;;;;;;5096117;28;20040;-82
2021/09/14 07:40:41;;;;;;;19.15;11.70;;;;;;;;;;5095831;28;20055;-83
2021/09/14 07:43:07;;;;;;;14.40;11.52;;;;;;;;;;5097054;28;20306;-82
2021/09/14 07:45:34;;;;;;;27.83;15.52;;;;;;;;;;5095645;28;20032;-83
2021/09/14 07:48:00;;;;;;;21.92;12.60;;;;;;;;;;5097128;28;20031;-83
2021/09/14 07:50:26;;;;;;;16.30;11.63;;;;;;;;;;5096237;28;20040;-83
2021/09/14 07:52:52;;;;;;;22.48;12.35;;;;;;;;;;5096095;28;20074;-82
2021/09/14 07:55:18;;;;;;;19.45;11.23;;;;;;;;;;5097068;28;20024;-82
2021/09/14 07:57:44;;;;;;;16.20;11.20;;;;;;;;;;5096864;28;20028;-83
2021/09/14 08:00:11;;;;;;;22.27;12.07;;;;;;;;;;5095847;28;20077;-83
2021/09/14 08:02:37;;;;;;;18.65;11.07;;;;;;;;;;5095645;28;20070;-83
2021/09/14 08:05:04;;;;;;;16.60;11.82;;;;;;;;;;5096914;28;20024;-83
2021/09/14 08:07:30;;;;;;;15.23;11.52;;;;;;;;;;5096668;28;20040;-82
2021/09/14 08:09:56;;;;;;;15.63;10.93;;;;;;;;;;5096797;28;20390;-83
2021/09/14 08:12:22;;;;;;;20.48;10.38;;;;;;;;;;5098160;28;20047;-82
2021/09/14 08:14:49;;;;;;;28.33;9.65;;;;;;;;;;5100473;28;20074;-83
2021/09/14 08:17:16;;;;;;;12.40;6.88;;;;;;;;;;5099505;28;20040;-82
2021/09/14 08:19:42;;;;;;;13.77;7.20;;;;;;;;;;5100415;28;20059;-83
2021/09/14 08:22:09;;;;;;;9.48;6.60;;;;;;;;;;5099328;28;20024;-82
2021/09/14 08:24:35;;;;;;;9.05;7.05;;;;;;;;;;5100508;28;20027;-83
2021/09/14 08:27:02;;;;;;;8.30;7.10;;;;;;;;;;5100514;28;20099;-82
2021/09/14 08:29:28;;;;;;;12.18;7.93;;;;;;;;;;5100303;28;20035;-84
2021/09/14 08:31:54;;;;;;;12.15;8.05;;;;;;;;;;5100343;28;20028;-82
2021/09/14 08:34:20;;;;;;;8.07;7.25;;;;;;;;;;5100616;28;20028;-83
2021/09/14 08:36:47;;;;;;;215.57;161.18;;;;;;;;;;5099614;28;20032;-82
2021/09/14 08:39:13;;;;;;;17.50;11.98;;;;;;;;;;5100063;28;20117;-82
2021/09/14 08:41:39;;;;;;;26.10;20.13;;;;;;;;;;5100130;28;20036;-83
2021/09/14 08:44:05;;;;;;;18.95;13.75;;;;;;;;;;5099836;28;20066;-82
2021/09/14 08:46:34;;;;;;;20.48;11.98;;;;;;;;;;5100074;28;20026;-82
2021/09/14 08:49:01;;;;;;;39.45;28.73;;;;;;;;;;5099077;28;20032;-83
2021/09/14 08:51:27;;;;;;;12.32;8.48;;;;;;;;;;5100004;28;20096;-82
2021/09/14 08:53:53;;;;;;;23.60;17.35;;;;;;;;;;5099948;28;20020;-82
2021/09/14 08:56:20;;;;;;;6.22;4.57;;;;;;;;;;5098728;28;20053;-82
2021/09/14 08:58:56;;;;;;;12.40;10.15;;;;;;;;;;5098950;28;20415;-83
2021/09/14 09:01:22;;;;;;;10.82;4.88;;;;;;;;;;5099584;28;20040;-83
2021/09/14 09:03:56;;;;;;;10.98;7.18;;;;;;;;;;5098875;28;20028;-82
2021/09/14 09:06:30;;;;;;;11.68;7.15;;;;;;;;;;5098419;28;20040;-82
2021/09/14 09:09:06;;;;;;;14.10;6.20;;;;;;;;;;5099440;28;20028;-82
2021/09/14 09:11:33;;;;;;;9.23;4.97;;;;;;;;;;5099561;28;20026;-82
2021/09/14 09:13:59;;;;;;;10.30;4.65;;;;;;;;;;5098530;28;20070;-82
2021/09/14 09:16:29;;;;;;;17.13;4.80;;;;;;;;;;5099596;28;20348;-82
2021/09/14 09:18:59;;;;;;;8.98;4.35;;;;;;;;;;5098174;28;20035;-83
2021/09/14 09:21:29;;;;;;;8.50;5.75;;;;;;;;;;5098483;28;20073;-82
2021/09/14 09:23:59;;;;;;;9.48;5.18;;;;;;;;;;5080865;28;20036;-82
2021/09/14 09:26:32;;;;;;;8.63;4.85;;;;;;;;;;5098137;28;20035;-82
2021/09/14 09:28:59;;;;;;;6.82;4.68;;;;;;;;;;5099066;28;20314;-83
2021/09/14 09:31:25;;;;;;;19.13;5.18;;;;;;;;;;5099152;28;20024;-82
2021/09/14 09:34:00;;;;;;;9.32;4.47;;;;;;;;;;5098976;28;20021;-82
2021/09/14 09:36:29;;;;;;;12.73;4.93;;;;;;;;;;5098974;28;20059;-83
2021/09/14 09:38:58;;;;;;;10.85;5.80;;;;;;;;;;5098786;28;20024;-83
2021/09/14 09:41:24;;;;;;;23.48;5.50;;;;;;;;;;5099033;28;20043;-83
2021/09/14 09:43:50;;;;;;;21.65;4.90;;;;;;;;;;5098912;28;20028;-82
2021/09/14 09:46:20;;;;;;;10.68;4.72;;;;;;;;;;5098995;28;20070;-83
2021/09/14 09:48:47;;;;;;;10.53;4.03;;;;;;;;;;5098657;28;20020;-83
2021/09/14 09:51:13;;;;;;;11.52;4.25;;;;;;;;;;5098765;28;20417;-82
2021/09/14 09:53:39;;;;;;;4.18;3.78;;;;;;;;;;5098488;28;20097;-82
2021/09/14 09:56:06;;;;;;;5.45;4.00;;;;;;;;;;5097924;28;20016;-82
2021/09/14 09:58:32;;;;;;;17.60;4.40;;;;;;;;;;5097299;28;20032;-82
2021/09/14 10:01:04;;;;;;;7.13;3.88;;;;;;;;;;5088987;28;20036;-82
2021/09/14 10:03:32;;;;;;;7.07;4.47;;;;;;;;;;5097725;28;20016;-82
2021/09/14 10:06:00;;;;;;;8.05;4.07;;;;;;;;;;5095919;28;20021;-82
2021/09/14 10:08:27;;;;;;;19.67;4.88;;;;;;;;;;5098377;28;20059;-82
2021/09/14 10:10:55;;;;;;;26.17;5.18;;;;;;;;;;5097617;28;20445;-82
2021/09/14 10:13:29;;;;;;;9.30;4.10;;;;;;;;;;5097427;28;20357;-82
2021/09/14 10:15:55;;;;;;;18.40;4.65;;;;;;;;;;5097114;28;20031;-83
2021/09/14 10:18:26;;;;;;;9.15;4.07;;;;;;;;;;5097696;28;20303;-83
2021/09/14 10:20:52;;;;;;;5.38;3.63;;;;;;;;;;5098029;28;20322;-81
2021/09/14 10:23:18;;;;;;;6.88;3.95;;;;;;;;;;5097057;28;20028;-83
2021/09/14 10:25:51;;;;;;;4.70;4.13;;;;;;;;;;5098306;28;20099;-83
2021/09/14 10:28:17;;;;;;;7.13;4.38;;;;;;;;;;5097345;28;20466;-83
2021/09/14 10:30:44;;;;;;;11.23;4.60;;;;;;;;;;5097160;28;20074;-83
2021/09/14 10:33:29;;;;;;;22.45;4.72;;;;;;;;;;5097967;28;20410;-83
2021/09/14 10:35:55;;;;;;;5.75;4.10;;;;;;;;;;5097222;28;20032;-83
2021/09/14 10:38:23;;;;;;;15.05;4.35;;;;;;;;;;5097109;28;20437;-83
2021/09/14 10:40:50;;;;;;;4.93;3.50;;;;;;;;;;5096740;28;20059;-83
2021/09/14 10:43:22;;;;;;;15.40;4.57;;;;;;;;;;5097852;28;20036;-83
2021/09/14 10:45:48;;;;;;;7.47;3.60;;;;;;;;;;5097664;28;20024;-83
2021/09/14 10:48:22;;;;;;;5.60;3.88;;;;;;;;;;5098076;28;20038;-83
2021/09/14 10:50:48;;;;;;;4.80;3.60;;;;;;;;;;5097793;28;20036;-83
2021/09/14 10:53:24;;;;;;;23.33;4.03;;;;;;;;;;5096675;28;20020;-83
2021/09/14 10:56:00;;;;;;;12.43;3.67;;;;;;;;;;5096943;28;20077;-83
2021/09/14 10:58:28;;;;;;;10.43;3.80;;;;;;;;;;5097474;28;20111;-83
2021/09/14 11:00:54;;;;;;;10.48;3.78;;;;;;;;;;5097642;28;20044;-83
2021/09/14 11:03:21;;;;;;;28.38;4.60;;;;;;;;;;5097604;28;20020;-83
2021/09/14 11:05:51;;;;;;;20.50;4.22;;;;;;;;;;5097423;28;20065;-83
2021/09/14 11:08:22;;;;;;;6.85;3.97;;;;;;;;;;5097344;28;20134;-82
2021/09/14 11:10:48;;;;;;;12.43;4.25;;;;;;;;;;5096392;28;20032;-83
2021/09/14 11:13:24;;;;;;;18.95;4.10;;;;;;;;;;5096678;28;20423;-83
2021/09/14 11:16:00;;;;;;;7.60;3.90;;;;;;;;;;5097258;28;20027;-83
2021/09/14 11:18:27;;;;;;;29.92;4.45;;;;;;;;;;5098421;28;20020;-82
2021/09/14 11:21:00;;;;;;;10.93;3.90;;;;;;;;;;5097382;28;20028;-83
2021/09/14 11:23:27;;;;;;;8.27;3.67;;;;;;;;;;5097366;28;20016;-83
2021/09/14 11:25:54;;;;;;;6.32;3.95;;;;;;;;;;5097324;28;20066;-84
2021/09/14 11:28:20;;;;;;;12.38;11.00;;;;;;;;;;5096181;28;20095;-84
2021/09/14 11:31:00;;;;;;;23.00;17.60;;;;;;;;;;5096464;28;20032;-83
2021/09/14 11:33:26;;;;;;;7.63;3.97;;;;;;;;;;5097344;28;20291;-83
2021/09/14 11:35:56;;;;;;;16.92;12.40;;;;;;;;;;5097268;28;20347;-82
2021/09/14 11:38:23;;;;;;;10.13;6.15;;;;;;;;;;5096565;28;20098;-83
2021/09/14 11:40:51;;;;;;;9.07;5.90;;;;;;;;;;5096063;28;20024;-83
2021/09/14 11:43:18;;;;;;;8.02;5.38;;;;;;;;;;5097213;28;20421;-84
2021/09/14 11:45:45;;;;;;;18.40;15.57;;;;;;;;;;5096127;28;20028;-84
2021/09/14 11:48:20;;;;;;;19.63;12.15;;;;;;;;;;5099955;28;20024;-83
2021/09/14 11:50:46;;;;;;;32.45;23.25;;;;;;;;;;5101077;28;20440;-83
2021/09/14 11:53:17;;;;;;;7.82;4.32;;;;;;;;;;5100980;28;20422;-83
2021/09/14 11:55:51;;;;;;;10.43;3.50;;;;;;;;;;5101206;28;20081;-84
2021/09/14 11:58:37;;;;;;;5.78;3.58;;;;;;;;;;5101093;28;20082;-84
2021/09/14 12:01:10;;;;;;;3.47;3.17;;;;;;;;;;5101166;28;20020;-84
2021/09/14 12:03:37;;;;;;;5.45;3.50;;;;;;;;;;5100946;28;20047;-84
2021/09/14 12:06:03;;;;;;;44.83;32.60;;;;;;;;;;5099900;28;20356;-85
2021/09/14 12:08:30;;;;;;;18.33;14.75;;;;;;;;;;5100056;28;20031;-84
2021/09/14 12:10:57;;;;;;;6.50;5.40;;;;;;;;;;5101089;28;20093;-85
2021/09/14 12:13:23;;;;;;;8.68;6.10;;;;;;;;;;5100992;28;20025;-85
2021/09/14 12:15:52;;;;;;;7.05;4.40;;;;;;;;;;5100728;28;20040;-85
2021/09/14 12:18:19;;;;;;;6.47;3.58;;;;;;;;;;5100526;28;20055;-85
2021/09/14 12:20:46;;;;;;;8.00;4.30;;;;;;;;;;5100831;28;20024;-85
2021/09/14 12:23:13;;;;;;;68.82;50.22;;;;;;;;;;5100707;28;20024;-85
2021/09/14 12:25:39;;;;;;;11.70;8.70;;;;;;;;;;5099729;28;20043;-86
2021/09/14 12:28:06;;;;;;;7.80;6.28;;;;;;;;;;5100551;28;20484;-86
2021/09/14 12:30:32;;;;;;;21.00;15.40;;;;;;;;;;5100845;28;20036;-85
2021/09/14 12:32:58;;;;;;;7.72;5.03;;;;;;;;;;5100475;28;20309;-85
2021/09/14 12:35:24;;;;;;;8.25;6.70;;;;;;;;;;5100790;28;20024;-85
2021/09/14 12:37:50;;;;;;;12.07;8.73;;;;;;;;;;5099539;28;20024;-85
2021/09/14 12:40:16;;;;;;;8.18;5.25;;;;;;;;;;5100684;28;20043;-85
2021/09/14 12:42:42;;;;;;;6.38;4.63;;;;;;;;;;5100580;28;20428;-85
2021/09/14 12:45:09;;;;;;;4.38;3.55;;;;;;;;;;5100183;28;20020;-85
2021/09/14 12:47:35;;;;;;;7.93;5.13;;;;;;;;;;5100424;28;20402;-85
2021/09/14 12:50:01;;;;;;;6.40;3.92;;;;;;;;;;5100165;28;20040;-82
2021/09/14 12:52:27;;;;;;;5.05;3.35;;;;;;;;;;5099741;28;20051;-82
2021/09/14 12:54:54;;;;;;;5.43;3.83;;;;;;;;;;5100032;28;20028;-82
2021/09/14 12:57:20;;;;;;;3.78;3.25;;;;;;;;;;5099788;28;20029;-82
2021/09/14 12:59:46;;;;;;;6.85;3.63;;;;;;;;;;5098660;28;20039;-82
2021/09/14 13:02:12;;;;;;;5.28;3.92;;;;;;;;;;5099594;28;20016;-82
2021/09/14 13:04:38;;;;;;;5.38;3.90;;;;;;;;;;5099535;28;20066;-82
2021/09/14 13:07:05;;;;;;;5.88;4.40;;;;;;;;;;5098848;28;20040;-83
2021/09/14 13:09:31;;;;;;;14.85;8.90;;;;;;;;;;5099521;28;20024;-82
2021/09/14 13:11:57;;;;;;;8.23;5.13;;;;;;;;;;5099548;28;20032;-83
2021/09/14 13:17:09;;;;;;;7.10;3.78;;;;;;;;;;5099532;28;20097;-82
2021/09/14 13:19:36;;;;;;;10.05;3.97;;;;;;;;;;5098448;28;20090;-82
2021/09/14 13:22:02;;;;;;;4.32;3.38;;;;;;;;;;5098616;28;20025;-83
2021/09/14 13:24:28;;;;;;;9.45;3.92;;;;;;;;;;5099331;28;20047;-83
2021/09/14 13:26:54;;;;;;;5.95;3.72;;;;;;;;;;5098479;28;20127;-83
2021/09/14 13:29:20;;;;;;;7.05;3.80;;;;;;;;;;5099268;28;20083;-83
2021/09/14 13:31:46;;;;;;;9.27;3.65;;;;;;;;;;5099179;28;20035;-83
2021/09/14 13:34:13;;;;;;;4.57;3.70;;;;;;;;;;5099259;28;20027;-82
2021/09/14 13:36:39;;;;;;;4.72;3.45;;;;;;;;;;5099115;28;20325;-82
2021/09/14 13:39:05;;;;;;;9.07;3.80;;;;;;;;;;5097810;28;20016;-82
2021/09/14 13:41:38;;;;;;;7.78;3.72;;;;;;;;;;5098800;28;20059;-83
2021/09/14 13:46:49;;;;;;;5.68;3.55;;;;;;;;;;5099071;28;20050;-82
2021/09/14 13:49:15;;;;;;;8.32;3.67;;;;;;;;;;5097658;28;20025;-83
2021/09/14 13:51:41;;;;;;;5.25;3.95;;;;;;;;;;5098969;28;20034;-83
2021/09/14 13:54:07;;;;;;;6.97;3.83;;;;;;;;;;5098846;28;20030;-82
2021/09/14 13:56:33;;;;;;;7.97;3.58;;;;;;;;;;5098836;28;20036;-82
2021/09/14 13:58:59;;;;;;;3.85;3.42;;;;;;;;;;5097826;28;20028;-83
2021/09/14 14:01:25;;;;;;;8.15;3.53;;;;;;;;;;5098624;28;20069;-83
2021/09/14 14:03:52;;;;;;;14.15;4.00;;;;;;;;;;5097537;28;20107;-83
2021/09/14 14:06:18;;;;;;;27.15;4.40;;;;;;;;;;5098556;28;20051;-82
2021/09/14 14:08:45;;;;;;;6.57;3.50;;;;;;;;;;5098479;28;20402;-83
2021/09/14 14:11:11;;;;;;;6.28;3.53;;;;;;;;;;5098148;28;20032;-83
2021/09/14 14:13:37;;;;;;;9.00;4.10;;;;;;;;;;5098273;28;20020;-83
2021/09/14 14:16:03;;;;;;;9.00;3.58;;;;;;;;;;5098300;28;20027;-83
2021/09/14 14:18:30;;;;;;;6.65;3.72;;;;;;;;;;5098564;28;20317;-83
2021/09/14 14:20:57;;;;;;;7.05;3.88;;;;;;;;;;5098170;28;20078;-83
2021/09/14 14:23:23;;;;;;;5.60;3.25;;;;;;;;;;5098130;28;20051;-83
2021/09/14 14:25:49;;;;;;;6.38;3.65;;;;;;;;;;5098123;28;20020;-83
2021/09/14 14:28:15;;;;;;;11.20;4.20;;;;;;;;;;5098035;28;20020;-83
2021/09/14 14:30:41;;;;;;;18.63;4.22;;;;;;;;;;5098079;28;20024;-83
2021/09/14 14:33:08;;;;;;;14.63;4.05;;;;;;;;;;5097071;28;20024;-82
2021/09/14 14:35:34;;;;;;;16.30;4.43;;;;;;;;;;5097181;28;20047;-83
2021/09/14 14:38:00;;;;;;;9.05;5.32;;;;;;;;;;5096761;28;20024;-83
2021/09/14 14:40:26;;;;;;;19.92;5.72;;;;;;;;;;5097042;28;20043;-82
2021/09/14 14:42:53;;;;;;;14.80;4.80;;;;;;;;;;5097891;28;20020;-83
2021/09/14 14:45:19;;;;;;;44.80;7.43;;;;;;;;;;5097611;28;20024;-83
2021/09/14 14:47:48;;;;;;;34.92;6.80;;;;;;;;;;5097410;28;20028;-83
2021/09/14 14:50:15;;;;;;;15.57;4.40;;;;;;;;;;5097792;28;20020;-83
2021/09/14 14:52:42;;;;;;;17.33;4.57;;;;;;;;;;5096771;28;20410;-83
2021/09/14 14:55:08;;;;;;;17.27;4.80;;;;;;;;;;5097716;28;20027;-83
2021/09/14 14:57:34;;;;;;;22.70;5.40;;;;;;;;;;5097732;28;20425;-83
2021/09/14 15:00:00;;;;;;;11.13;4.10;;;;;;;;;;5097491;28;20070;-82
2021/09/14 15:02:26;;;;;;;9.80;4.38;;;;;;;;;;5097786;28;20389;-83
2021/09/14 15:04:52;;;;;;;9.35;4.20;;;;;;;;;;5097658;28;20016;-83
2021/09/14 15:07:18;;;;;;;6.35;3.70;;;;;;;;;;5097252;28;20044;-83
2021/09/14 15:09:44;;;;;;;14.70;3.85;;;;;;;;;;5097663;28;20153;-83
2021/09/14 15:12:10;;;;;;;10.18;3.88;;;;;;;;;;5096517;28;20020;-83
2021/09/14 15:14:37;;;;;;;21.50;4.80;;;;;;;;;;5097293;28;20057;-83
2021/09/14 15:17:03;;;;;;;12.05;4.22;;;;;;;;;;5097414;28;20057;-83
2021/09/14 15:19:29;;;;;;;19.75;4.68;;;;;;;;;;5096253;28;20032;-83
2021/09/14 15:21:55;;;;;;;9.52;3.80;;;;;;;;;;5095908;28;20020;-83
2021/09/14 15:24:21;;;;;;;10.93;3.92;;;;;;;;;;5097446;28;20346;-82
2021/09/14 15:26:47;;;;;;;10.13;4.68;;;;;;;;;;5097078;28;20020;-82
2021/09/14 15:29:13;;;;;;;28.40;5.47;;;;;;;;;;5097044;28;20398;-83
2021/09/14 15:31:39;;;;;;;11.45;4.15;;;;;;;;;;5096200;28;20054;-82
2021/09/14 15:34:06;;;;;;;15.75;4.47;;;;;;;;;;5096408;28;20056;-82